• Join FlightAware (Why Join?)
  • Login
  • US Flag 
03:36AM EDT


 

Airport Tracker/Info


-or-


 

Live Flight TrackerFlight Track Log ✈ ASH3759 ✈ 22-02-2014 ✈ KORD - KMSP

Flight Track Log - Related Links

Times and Time Zones

All times are in EST time to prevent confusion due to time zone crossing. See the ASH3759 flight status page for this flight to view local times or setup timezone preferences in your user account.

Time Position Orientation Groundspeed Altitude Reporting Facility
EST Latitude Longitude Course Direction KTS MPH feet Rate Location/Type
02:59PM 42.0167 -87.9500 346° North 162 186 2,300  Level Chicago TRACON
03:00PM 42.0500 -88.0000 312° West 203 234 4,700 2,520 Climbing Chicago TRACON
03:01PM 42.1167 -88.0167 349° North 248 285 7,200 2,700 Climbing Chicago TRACON
03:02PM 42.1428 -88.0264 345° North 253 291 8,600 2,640 Climbing Chicago Center
03:03PM 42.4320 -88.0531 352° North  Level FlightAware Approximate
03:03PM 42.2167 -88.0303 358° North 264 304 11,300  Level Chicago Center
03:04PM 42.5247 -88.0862 345° North  Level FlightAware Approximate
03:04PM 42.2967 -88.0314 359° North 285 328 13,700  Level Chicago Center
03:05PM 42.0732 -87.9386 346° North  Level FlightAware Approximate
03:05PM 42.3744 -88.0286 North 299 344 16,200  Level Chicago Center
03:06PM 42.4592 -88.0228 North 305 351 18,100 1,500 Climbing Chicago Center
03:07PM 42.5619 -88.0547 347° North 315 362 19,300 1,440 Climbing Chicago Center
03:08PM 42.6550 -88.0931 343° North 346 398 21,100 1,740 Climbing Chicago Center
03:09PM 42.7478 -88.1311 343° North 349 402 22,900 1,560 Climbing Chicago Center
03:10PM 42.8417 -88.1692 343° North 352 405 24,400 1,380 Climbing Chicago Center
03:11PM 42.9381 -88.2103 343° North 360 414 25,800 1,260 Climbing Chicago Center
03:12PM 43.0372 -88.2517 343° North 370 426 27,100 1,200 Climbing Chicago Center
03:13PM 43.1344 -88.3006 340° North 371 427 28,300 1,080 Climbing Chicago Center
03:14PM 43.2019 -88.4253 307° West 339 390 29,400 780 Climbing Chicago Center
03:15PM 43.2606 -88.5292 308° West 339 390 30,000 240 Climbing Chicago Center
03:16PM 43.3253 -88.6394 309° West 362 417 30,000  Level Chicago Center
03:17PM 43.3906 -88.7517 309° West 369 425 30,000  Level Chicago Center
03:18PM 43.4561 -88.8650 309° West 376 433 30,000  Level Chicago Center
03:19PM 43.5206 -88.9778 308° West 375 432 30,000  Level Chicago Center
03:20PM 43.5856 -89.0906 309° West 374 430 30,000  Level Chicago Center
03:21PM 43.6494 -89.2019 308° West 373 429 30,000  Level Chicago Center
03:22PM 43.7133 -89.3153 308° West 373 429 30,000  Level Chicago Center
03:23PM 43.7772 -89.4289 308° West 375 432 30,000  Level Chicago Center
03:24PM 43.8422 -89.5422 309° West 376 433 30,000  Level Chicago Center
03:25PM 43.9208 -89.6789 309° West 378 435 30,000  Level Chicago Center
03:26PM 43.9858 -89.7950 308° West 380 437 30,000  Level Chicago Center
03:27PM 44.0500 -89.9111 308° West 380 437 30,000  Level Chicago Center
03:28PM 44.1086 -90.0344 304° West 384 442 30,000  Level Chicago Center
03:29PM 44.1622 -90.1603 301° West 380 437 30,000  Level Chicago Center
03:30PM 44.2208 -90.2956 301° West 380 437 30,000  Level Chicago Center
03:31PM 44.2753 -90.4225 301° West 382 440 30,000  Level Chicago Center
03:33PM 44.3372 -90.5664 301° West 382 440 30,000  Level Minneapolis Center
03:34PM 44.3922 -90.6953 301° West 383 441 30,000  Level Minneapolis Center
03:35PM 44.4469 -90.8247 301° West 386 444 30,000  Level Minneapolis Center
03:36PM 44.5067 -90.9678 300° West 387 445 30,000 -780 Level Minneapolis Center
03:37PM 44.5617 -91.0975 301° West 388 447 28,500 -1,680 Descending Minneapolis Center
03:38PM 44.6158 -91.2264 301° West 388 447 26,600 -1,980 Descending Minneapolis Center
03:39PM 44.6669 -91.3481 301° West 372 428 24,500 -2,220 Descending Minneapolis Center
03:40PM 44.7250 -91.4900 300° West 358 412 22,200 -2,160 Descending Minneapolis Center
03:41PM 44.7719 -91.6050 300° West 347 399 20,100 -2,040 Descending Minneapolis Center
03:42PM 44.8183 -91.7183 300° West 341 392 18,100 -1,920 Descending Minneapolis Center
03:43PM 44.8636 -91.8289 300° West 334 384 16,300 -1,680 Descending Minneapolis Center
03:44PM 44.9072 -91.9369 300° West 322 371 14,700 -1,620 Descending Minneapolis Center
03:45PM 44.9511 -92.0450 300° West 322 371 13,100 -1,620 Descending Minneapolis Center
03:46PM 44.9961 -92.1550 300° West 322 371 11,500 -1,080 Descending Minneapolis Center
03:47PM 45.0386 -92.2625 299° West 320 368 11,000 -360 Descending Minneapolis Center
03:48PM 45.0367 -92.3783 269° West 320 368 10,800 -480 Descending Minneapolis Center
03:49PM 44.9931 -92.4900 241° Southwest 268 308 10,100 -1,080 Descending Minneapolis Center
03:50PM 44.9636 -92.5692 242° Southwest 232 267 8,700 -1,500 Descending Minneapolis Center
03:51PM 44.9333 -92.6447 241° Southwest 225 259 7,100 -840 Descending Minneapolis Center
03:52PM 44.9039 -92.7231 242° Southwest 225 259 7,000 -600 Descending Minneapolis Center
03:53PM 44.8731 -92.8017 241° Southwest 228 262 5,900 -1,140 Descending Minneapolis Center
03:54PM 44.8428 -92.8808 242° Southwest 228 262 4,800 -1,140 Descending Minneapolis Center
03:55PM 44.8261 -92.9667 255° West 228 262 3,700 -900 Descending Minneapolis Center
03:56PM 44.8294 -93.0506 273° West 220 253 3,000 -600 Descending Minneapolis Center
03:57PM 44.8422 -93.1028 289° West 140 161 2,500 -660 Descending Minneapolis Center
03:58PM 44.8631 -93.1514 301° West 125 144 1,700 -840 Descending Minneapolis Center